This is the latest recevied weather packets stored in our database for station/object IU3OVK-13. If no packets are shown the sender has not sent any weather packets the latest 10 day(s).
| Time | Temp. | Humidity | Pressure | Rain* | Wind** | Luminosity | Snow |
|---|---|---|---|---|---|---|---|
| 1777625407 | 32.22° C | 48% | 1018.4 hPa | - | - | - | - |
| 1777624785 | 28.89° C | 54% | 1020.2 hPa | - | - | - | - |
| 1777624165 | 33.33° C | 54% | 1018.9 hPa | - | - | - | - |
| 1777623545 | 31.11° C | 56% | 1020.3 hPa | - | - | - | - |
| 1777622305 | 30.56° C | 57% | 1020.3 hPa | - | - | - | - |
| 1777621685 | 30.56° C | 57% | 1020.3 hPa | - | - | - | - |
| 1777621063 | 27.78° C | 62% | 1020.8 hPa | - | - | - | - |
| 1777620443 | 28.33° C | 64% | 1020.8 hPa | - | - | - | - |
| 1777619822 | 29.44° C | 65% | 1019.6 hPa | - | - | - | - |
| 1777619202 | 27.22° C | 69% | 1018.3 hPa | - | - | - | - |
| 1777617962 | 25.56° C | 74% | 1018.1 hPa | - | - | - | - |
| 1777617342 | 26.11° C | 77% | 1016.7 hPa | - | - | - | - |
| 1777616721 | 26.67° C | 80% | 1014.5 hPa | - | - | - | - |
| 1777616101 | 25.56° C | 87% | 1015.9 hPa | - | - | - | - |
| 1777614241 | 16.11° C | 99% | 1021.5 hPa | - | - | - | - |
| 1777613621 | 16.11° C | 99% | 1021.6 hPa | - | - | - | - |
| 1777612378 | 6.11° C | 99% | 1022.9 hPa | - | - | - | - |
| 1777579677 | 12.78° C | 99% | 1020.3 hPa | - | - | - | - |
| 1777577817 | 13.33° C | 99% | 1019.5 hPa | - | - | - | - |
| 1777577197 | 13.33° C | 99% | 1019.5 hPa | - | - | - | - |
| 1777576577 | 13.33° C | 99% | 1018.8 hPa | - | - | - | - |
| 1777575957 | 13.89° C | 99% | 1019.1 hPa | - | - | - | - |
| 1777574716 | 13.89° C | 99% | 1018.3 hPa | - | - | - | - |
| 1777572236 | 14.44° C | 97% | 1017.5 hPa | - | - | - | - |
| 1777571616 | 14.44° C | 99% | 1017.8 hPa | - | - | - | - |
* Rain since midnight (hover to see other rain measurements)
** Current wind speed in m/s (hover to see current wind gust speed)